createdAt,value
2018-11-02T00:02:19.329Z,77.31
2018-11-02T00:04:48.240Z,76.43
2018-11-02T00:07:17.218Z,76.31
2018-11-02T00:09:46.092Z,76.17
2018-11-02T00:12:14.990Z,75.78
2018-11-02T00:14:43.820Z,75.51
2018-11-02T00:17:12.692Z,75.32
2018-11-02T00:19:46.619Z,75.85
2018-11-02T00:22:15.519Z,76.01
2018-11-02T00:24:44.330Z,76.63
2018-11-02T00:27:13.166Z,76.03
2018-11-02T00:29:43.378Z,75.43
2018-11-02T00:32:12.283Z,75.71
2018-11-02T00:34:41.119Z,75.88
2018-11-02T00:37:09.947Z,75.80
2018-11-02T00:39:38.806Z,75.73
2018-11-02T00:42:07.763Z,75.81
2018-11-02T00:44:36.591Z,75.25
2018-11-02T00:47:05.618Z,75.37
2018-11-02T00:49:34.445Z,74.73
2018-11-02T00:52:03.279Z,74.92
2018-11-02T00:54:32.159Z,75.28
2018-11-02T00:57:01.054Z,76.17
2018-11-02T00:59:29.995Z,74.84
2018-11-02T01:01:58.862Z,75.03
2018-11-02T01:04:27.741Z,74.65
2018-11-02T01:06:56.604Z,74.70
2018-11-02T01:09:25.513Z,74.95
2018-11-02T01:11:54.407Z,75.25
2018-11-02T01:14:23.303Z,76.04
2018-11-02T01:16:52.311Z,76.64
2018-11-02T01:19:25.367Z,76.54
2018-11-02T01:21:54.352Z,76.47
2018-11-02T01:24:23.355Z,77.16
2018-11-02T01:26:52.257Z,76.51
2018-11-02T01:29:21.117Z,75.87
2018-11-02T01:31:50.104Z,75.29
2018-11-02T01:34:18.996Z,75.18
2018-11-02T01:36:47.874Z,75.19
2018-11-02T01:39:16.807Z,76.35
2018-11-02T01:41:45.742Z,76.08
2018-11-02T01:44:14.776Z,76.15
2018-11-02T01:46:43.615Z,75.73
2018-11-02T01:49:12.548Z,75.35
2018-11-02T01:51:41.360Z,75.63
2018-11-02T01:54:10.173Z,74.73
2018-11-02T01:56:39.050Z,73.94
2018-11-02T01:59:07.886Z,74.20
2018-11-02T02:01:37.116Z,74.54
2018-11-02T02:04:06.691Z,74.85
2018-11-02T02:06:35.559Z,75.18
2018-11-02T02:09:04.827Z,75.50
2018-11-02T02:11:33.708Z,75.08
2018-11-02T02:14:02.696Z,74.46
2018-11-02T02:16:31.619Z,74.72
2018-11-02T02:19:00.759Z,74.59
2018-11-02T02:21:29.638Z,74.51
2018-11-02T02:23:58.531Z,74.84
2018-11-02T02:26:27.595Z,74.82
2018-11-02T02:28:56.455Z,74.87
2018-11-02T02:31:25.390Z,74.55
2018-11-02T02:33:54.531Z,74.69
2018-11-02T02:36:23.526Z,75.13
2018-11-02T02:38:52.387Z,74.91
2018-11-02T02:41:21.306Z,74.50
2018-11-02T02:43:50.600Z,74.45
2018-11-02T02:46:19.519Z,74.44
2018-11-02T02:48:48.425Z,74.58
2018-11-02T02:51:17.312Z,74.41
2018-11-02T02:53:46.195Z,74.09
2018-11-02T02:56:15.402Z,73.93
2018-11-02T02:58:44.364Z,74.67
2018-11-02T03:01:13.207Z,74.93
2018-11-02T03:03:42.171Z,74.71
2018-11-02T03:06:11.098Z,75.01
2018-11-02T03:08:40.171Z,75.47
2018-11-02T03:11:09.390Z,76.10
2018-11-02T03:13:38.040Z,76.36
2018-11-02T03:16:13.514Z,76.86
2018-11-02T03:18:42.423Z,77.43
2018-11-02T03:21:11.341Z,78.09
2018-11-02T03:23:40.177Z,77.85
2018-11-02T03:26:09.022Z,78.11
2018-11-02T03:28:38.018Z,78.55
2018-11-02T03:31:06.940Z,78.31
2018-11-02T03:33:35.795Z,78.33
2018-11-02T03:36:04.795Z,79.23
2018-11-02T03:38:33.820Z,78.48
2018-11-02T03:41:02.756Z,79.17
2018-11-02T03:43:33.015Z,78.84
2018-11-02T03:46:01.909Z,78.31
2018-11-02T03:48:30.899Z,78.67
2018-11-02T03:50:59.865Z,78.04
2018-11-02T03:53:28.765Z,78.09
2018-11-02T03:55:57.799Z,78.12
2018-11-02T03:58:26.673Z,78.02
2018-11-02T04:00:56.329Z,77.61
2018-11-02T04:03:25.250Z,78.12
2018-11-02T04:05:54.186Z,78.57
2018-11-02T04:08:23.087Z,78.34
2018-11-02T04:10:52.051Z,77.54
2018-11-02T04:13:21.195Z,77.66
2018-11-02T04:15:50.059Z,78.16
2018-11-02T04:18:20.375Z,77.63
2018-11-02T04:20:49.204Z,77.75
2018-11-02T04:23:18.079Z,78.15
2018-11-02T04:25:46.990Z,78.24
2018-11-02T04:28:15.963Z,78.45
2018-11-02T04:30:44.879Z,78.81
2018-11-02T04:33:13.718Z,78.50
2018-11-02T04:35:43.839Z,78.82
2018-11-02T04:38:12.826Z,78.70
2018-11-02T04:40:41.685Z,78.42
2018-11-02T04:43:10.578Z,78.37
2018-11-02T04:45:40.465Z,77.83
2018-11-02T04:48:11.989Z,78.31
2018-11-02T04:50:41.455Z,78.50
2018-11-02T04:53:10.345Z,77.81
2018-11-02T04:55:39.280Z,78.10
2018-11-02T04:58:08.174Z,77.65
2018-11-02T05:00:37.138Z,78.26
2018-11-02T05:03:06.262Z,78.60
2018-11-02T05:05:36.675Z,78.31
2018-11-02T05:08:05.707Z,78.38
2018-11-02T05:10:34.790Z,78.52
2018-11-02T05:13:03.686Z,79.05
2018-11-02T05:15:32.555Z,78.93
2018-11-02T05:18:01.436Z,78.45
2018-11-02T05:20:30.302Z,78.46
2018-11-02T05:22:59.316Z,78.77
2018-11-02T05:25:28.186Z,78.49
2018-11-02T05:27:57.015Z,77.58
2018-11-02T05:30:25.934Z,78.01
2018-11-02T05:32:56.177Z,78.22
2018-11-02T05:35:25.137Z,78.52
2018-11-02T05:37:54.032Z,78.48
2018-11-02T05:40:22.855Z,78.59
2018-11-02T05:42:52.943Z,77.82
2018-11-02T05:45:21.822Z,77.75
2018-11-02T05:47:50.726Z,77.58
2018-11-02T05:50:19.698Z,77.01
2018-11-02T05:52:48.581Z,75.70
2018-11-02T05:55:18.878Z,74.82
2018-11-02T05:57:47.754Z,73.67
2018-11-02T06:00:16.734Z,72.63
2018-11-02T06:02:45.700Z,72.35
2018-11-02T06:05:14.891Z,71.83
2018-11-02T06:07:43.770Z,72.53
2018-11-02T06:10:12.702Z,72.22
2018-11-02T06:12:41.612Z,72.15
2018-11-02T06:15:10.509Z,71.78
2018-11-02T06:17:39.587Z,72.94
2018-11-02T06:20:09.534Z,74.37
2018-11-02T06:22:38.652Z,74.23
2018-11-02T06:25:08.902Z,75.31
2018-11-02T08:58:08.970Z,59.75
2018-11-02T09:00:37.585Z,60.92
2018-11-02T09:03:06.471Z,60.79
2018-11-02T09:05:36.454Z,60.53
2018-11-02T09:08:06.821Z,60.37
2018-11-02T09:10:35.784Z,61.58
2018-11-02T09:13:05.156Z,61.15
2018-11-02T09:15:34.173Z,62.07
2018-11-02T09:18:03.143Z,62.49
2018-11-02T09:20:32.155Z,63.53
2018-11-02T09:23:01.204Z,63.50
2018-11-02T09:25:30.182Z,63.01
2018-11-02T09:27:59.161Z,63.24
2018-11-02T09:30:28.722Z,62.70
2018-11-02T09:32:58.990Z,64.27
2018-11-02T09:35:27.980Z,65.18
2018-11-02T09:37:56.916Z,64.93
2018-11-02T09:40:25.796Z,65.10
2018-11-02T09:42:54.694Z,64.97
2018-11-02T09:45:23.695Z,64.83
2018-11-02T09:47:52.663Z,65.71
2018-11-02T09:50:21.694Z,64.13
2018-11-02T09:52:50.586Z,63.58
2018-11-02T09:55:19.486Z,62.81
2018-11-02T09:57:49.771Z,62.02
2018-11-02T10:00:18.695Z,61.40
2018-11-02T10:02:47.707Z,61.50
2018-11-02T10:05:16.759Z,61.13
2018-11-02T10:07:45.790Z,60.86
2018-11-02T10:10:16.099Z,61.26
2018-11-02T10:12:45.103Z,60.30
2018-11-02T10:15:15.446Z,61.38
2018-11-02T10:17:44.583Z,61.88
2018-11-02T10:20:13.698Z,61.95
2018-11-02T10:22:42.678Z,62.28
2018-11-02T10:25:12.211Z,62.85
2018-11-02T10:27:42.695Z,62.75
2018-11-02T10:30:13.344Z,61.91
2018-11-02T10:32:45.383Z,62.22
2018-11-02T10:35:14.516Z,62.69
2018-11-02T10:37:43.650Z,63.30
2018-11-02T10:40:15.353Z,63.37
2018-11-02T10:42:45.804Z,63.32
2018-11-02T10:45:15.056Z,62.85
2018-11-02T10:47:44.078Z,62.77
2018-11-02T10:50:13.098Z,61.80
2018-11-02T10:52:42.178Z,61.20
2018-11-02T10:55:11.242Z,60.97
2018-11-02T10:57:40.280Z,60.23
2018-11-02T11:00:16.821Z,61.29
2018-11-02T11:02:45.841Z,61.60
2018-11-02T11:05:14.817Z,60.93
2018-11-02T11:07:43.750Z,59.52
2018-11-02T11:10:13.022Z,59.74
2018-11-02T11:12:42.525Z,60.04
2018-11-02T11:15:11.299Z,60.63
2018-11-02T11:17:40.319Z,59.82
2018-11-02T11:20:11.694Z,59.71
2018-11-02T11:22:40.907Z,59.87
2018-11-02T11:25:13.243Z,60.94
2018-11-02T11:27:42.209Z,61.30
2018-11-02T11:30:17.535Z,61.71
2018-11-02T11:32:47.078Z,61.50
2018-11-02T11:35:17.098Z,62.14
2018-11-02T11:37:46.215Z,62.55
2018-11-02T11:40:18.030Z,62.58
2018-11-02T11:42:47.088Z,63.04
2018-11-02T11:45:18.882Z,62.48
2018-11-02T11:47:47.889Z,63.28
2018-11-02T11:50:22.031Z,62.43
2018-11-02T11:52:52.086Z,63.08
2018-11-02T11:55:21.101Z,64.42
2018-11-02T11:57:50.016Z,65.32
2018-11-02T12:00:20.459Z,65.34
2018-11-02T12:02:50.205Z,65.32
2018-11-02T12:05:20.337Z,65.46
2018-11-02T12:07:49.452Z,65.54
2018-11-02T12:10:21.446Z,65.59
2018-11-02T12:12:50.470Z,65.69
2018-11-02T12:15:20.532Z,65.68
2018-11-02T12:17:50.183Z,65.02
2018-11-02T12:20:20.644Z,65.19
2018-11-02T12:22:50.667Z,65.99
2018-11-02T12:25:19.702Z,66.19
2018-11-02T12:27:48.730Z,66.58
2018-11-02T12:30:18.735Z,66.26
2018-11-02T12:32:47.715Z,67.83
2018-11-02T12:35:17.626Z,68.28
2018-11-02T12:37:46.636Z,68.33
2018-11-02T12:40:23.614Z,67.73
2018-11-02T12:42:53.494Z,68.29
2018-11-02T12:45:22.964Z,67.70
2018-11-02T12:47:52.030Z,68.21
2018-11-02T12:50:23.413Z,67.99
2018-11-02T12:52:55.024Z,67.51
2018-11-02T12:55:24.293Z,67.07
2018-11-02T12:57:53.330Z,66.91
2018-11-02T13:00:26.610Z,67.27
2018-11-02T13:02:55.870Z,67.64
2018-11-02T13:05:24.968Z,68.42
2018-11-02T13:07:53.910Z,69.19
2018-11-02T13:10:23.566Z,69.16
2018-11-02T13:12:52.553Z,69.38
2018-11-02T13:15:22.738Z,69.59
2018-11-02T13:17:52.018Z,68.95
2018-11-02T13:20:21.126Z,68.81
2018-11-02T13:22:50.594Z,68.20
2018-11-02T13:25:20.932Z,68.34
2018-11-02T13:27:50.669Z,69.15
2018-11-02T13:30:19.711Z,68.47
2018-11-02T13:32:48.627Z,68.38
2018-11-02T13:35:19.121Z,69.18
2018-11-02T13:37:48.724Z,70.72
2018-11-02T13:40:18.515Z,71.18
2018-11-02T13:42:47.546Z,71.63
2018-11-02T13:45:17.714Z,71.00
2018-11-02T13:47:49.321Z,70.66
2018-11-02T13:50:18.295Z,69.00
2018-11-02T13:52:47.137Z,69.50
2018-11-02T13:55:16.047Z,69.89
2018-11-02T13:57:44.935Z,69.45
2018-11-02T14:00:16.243Z,67.87
2018-11-02T14:02:45.335Z,68.35
2018-11-02T14:05:15.426Z,69.06
2018-11-02T14:07:44.384Z,69.66
2018-11-02T14:10:15.318Z,70.05
2018-11-02T14:12:44.254Z,70.12
2018-11-02T14:15:15.182Z,70.39
2018-11-02T14:17:44.416Z,70.21
2018-11-02T14:20:14.112Z,70.84
2018-11-02T14:22:43.074Z,72.19
2018-11-02T14:25:15.470Z,71.49
2018-11-02T14:27:44.848Z,71.61
2018-11-02T14:30:16.217Z,71.95
2018-11-02T14:32:45.854Z,72.28
2018-11-02T14:35:14.820Z,72.79
2018-11-02T14:37:43.873Z,72.49
2018-11-02T14:40:12.921Z,73.12
2018-11-02T14:42:42.310Z,73.27
2018-11-02T14:45:13.410Z,73.13
2018-11-02T14:47:42.372Z,72.85
2018-11-02T14:50:11.881Z,72.76
2018-11-02T14:52:40.916Z,72.42
2018-11-02T14:55:10.223Z,72.54
2018-11-02T14:57:39.754Z,72.39
2018-11-02T15:00:10.222Z,72.05
2018-11-02T15:02:39.534Z,72.33
2018-11-02T15:05:09.654Z,72.59
2018-11-02T15:07:38.619Z,72.84
2018-11-02T15:10:07.788Z,74.20
2018-11-02T15:12:37.116Z,74.38
2018-11-02T15:15:06.569Z,74.28
2018-11-02T15:17:35.562Z,74.51
2018-11-02T15:20:05.182Z,74.13
2018-11-02T15:22:34.108Z,73.74
2018-11-02T15:25:03.104Z,73.95
2018-11-02T15:27:32.174Z,73.98
2018-11-02T15:30:01.166Z,73.54
2018-11-02T15:32:31.482Z,73.18
2018-11-02T15:35:00.439Z,72.82
2018-11-02T15:37:29.315Z,72.24
2018-11-02T15:39:58.308Z,72.55
2018-11-02T15:42:27.280Z,72.16
2018-11-02T15:44:56.239Z,72.55
2018-11-02T15:47:25.239Z,73.51
2018-11-02T15:49:54.186Z,74.33
2018-11-02T15:52:23.119Z,74.17
2018-11-02T15:54:52.257Z,74.31
2018-11-02T15:57:21.178Z,73.21
2018-11-02T15:59:50.068Z,73.11
2018-11-02T16:02:20.504Z,72.80
2018-11-02T16:04:49.479Z,72.47
2018-11-02T16:07:18.412Z,72.74
2018-11-02T16:09:48.554Z,72.24
2018-11-02T16:12:17.528Z,72.33
2018-11-02T16:14:46.625Z,72.28
2018-11-02T16:17:16.868Z,72.03
2018-11-02T16:19:45.785Z,72.26
2018-11-02T16:22:14.807Z,72.48
2018-11-02T16:24:44.610Z,72.58
2018-11-02T16:27:13.478Z,73.09
2018-11-02T16:29:42.432Z,72.80
2018-11-02T16:32:12.723Z,72.71
2018-11-02T16:34:41.680Z,73.55
2018-11-02T16:37:11.887Z,73.40
2018-11-02T16:39:40.883Z,73.80
2018-11-02T16:42:09.780Z,74.01
2018-11-02T16:44:38.780Z,73.20
2018-11-02T16:47:07.886Z,73.90
2018-11-02T16:49:36.869Z,73.32
2018-11-02T16:52:07.522Z,73.70
2018-11-02T16:54:36.553Z,73.34
2018-11-02T16:57:05.522Z,73.39
2018-11-02T16:59:34.559Z,73.28
2018-11-02T17:02:03.506Z,72.26
2018-11-02T17:04:33.753Z,72.37
2018-11-02T17:07:02.723Z,71.91
2018-11-02T17:09:31.635Z,71.17
2018-11-02T17:12:00.575Z,71.23
2018-11-02T17:14:29.471Z,71.42
2018-11-02T17:16:58.450Z,71.61
2018-11-02T17:19:27.479Z,71.40
2018-11-02T17:21:56.459Z,71.98
2018-11-02T17:24:25.404Z,72.32
2018-11-02T17:26:54.448Z,72.17
2018-11-02T17:29:23.395Z,71.84
2018-11-02T17:31:52.402Z,71.17
2018-11-02T17:34:21.338Z,71.38
2018-11-02T17:36:50.350Z,71.16
2018-11-02T17:39:19.302Z,71.64
2018-11-02T17:41:49.481Z,71.52
2018-11-02T17:44:18.436Z,72.07
2018-11-02T17:46:47.630Z,71.96
2018-11-02T17:49:18.028Z,71.85
2018-11-02T17:51:46.963Z,71.16
2018-11-02T17:54:15.886Z,70.58
2018-11-02T17:56:44.850Z,70.68
2018-11-02T17:59:13.913Z,71.13
2018-11-02T18:01:42.915Z,71.19
2018-11-02T18:04:11.994Z,71.49
2018-11-02T18:06:40.947Z,71.05
2018-11-02T18:09:11.338Z,71.20
2018-11-02T18:11:40.688Z,71.25
2018-11-02T18:14:09.647Z,71.14
2018-11-02T18:16:38.724Z,70.65
2018-11-02T18:19:07.764Z,71.20
2018-11-02T18:21:36.762Z,70.81
2018-11-02T18:24:05.817Z,71.10
2018-11-02T18:26:34.844Z,70.90
2018-11-02T18:29:03.907Z,70.94
2018-11-02T18:31:33.055Z,71.41
2018-11-02T18:34:02.076Z,72.19
2018-11-02T18:36:31.062Z,72.55
2018-11-02T18:39:00.059Z,72.45
2018-11-02T18:41:28.975Z,72.19
2018-11-02T18:43:57.969Z,72.49
2018-11-02T18:46:26.902Z,72.57
2018-11-02T18:48:55.867Z,72.82
2018-11-02T18:51:26.276Z,72.37
2018-11-02T18:53:55.241Z,73.14
2018-11-02T18:56:24.178Z,73.23
2018-11-02T18:58:54.380Z,72.89
2018-11-02T19:01:23.477Z,72.02
2018-11-02T19:03:52.371Z,71.57
2018-11-02T19:06:21.407Z,71.67
2018-11-02T19:08:50.452Z,71.76
2018-11-02T19:11:19.463Z,72.56
2018-11-02T19:13:48.475Z,72.67
2018-11-02T19:16:17.529Z,72.03
2018-11-02T19:18:46.490Z,71.28
2018-11-02T19:21:15.973Z,71.54
2018-11-02T19:23:44.936Z,71.55
2018-11-02T19:26:13.892Z,70.87
2018-11-02T19:28:42.860Z,70.78
2018-11-02T19:31:11.813Z,70.51
2018-11-02T19:33:40.996Z,70.17
2018-11-02T19:36:09.960Z,70.95
2018-11-02T19:38:39.176Z,70.68
2018-11-02T19:41:07.935Z,70.43
2018-11-02T19:43:36.899Z,70.96
2018-11-02T19:46:06.466Z,71.30
2018-11-02T19:48:37.417Z,71.02
2018-11-02T19:51:08.359Z,71.19
2018-11-02T19:53:37.396Z,71.62
2018-11-02T19:56:06.566Z,71.13
2018-11-02T19:58:35.515Z,71.29
2018-11-02T20:01:04.543Z,72.27
2018-11-02T20:03:33.507Z,72.79
2018-11-02T20:06:02.411Z,73.37
2018-11-02T20:08:31.463Z,72.81
2018-11-02T20:11:00.434Z,73.30
2018-11-02T20:13:29.380Z,72.38
2018-11-02T20:15:59.644Z,72.75
2018-11-02T20:18:28.734Z,72.84
2018-11-02T20:20:57.693Z,72.85
2018-11-02T20:23:27.915Z,72.53
2018-11-02T20:25:58.165Z,72.13
2018-11-02T20:28:27.384Z,72.37
2018-11-02T20:30:56.386Z,72.50
2018-11-02T20:33:25.418Z,71.64
2018-11-02T20:35:54.334Z,72.04
2018-11-02T20:38:23.556Z,71.68
2018-11-02T20:40:52.682Z,71.62
2018-11-02T20:43:21.552Z,71.36
2018-11-02T20:45:50.486Z,71.78
2018-11-02T20:48:19.505Z,72.82
2018-11-02T20:50:48.491Z,73.15
2018-11-02T20:53:17.518Z,73.32
2018-11-02T20:55:46.471Z,74.35
2018-11-02T20:58:15.514Z,73.53
2018-11-02T21:00:44.445Z,73.75
2018-11-02T21:03:13.367Z,73.85
2018-11-02T21:05:42.441Z,73.74
2018-11-02T21:08:11.500Z,73.85
2018-11-02T21:10:40.399Z,74.54
2018-11-02T21:13:09.467Z,74.03
2018-11-02T21:15:38.495Z,74.23
2018-11-02T21:18:07.402Z,74.29
2018-11-02T21:20:36.365Z,74.11
2018-11-02T21:23:05.598Z,73.90
2018-11-02T21:25:34.738Z,74.21
2018-11-02T21:28:03.783Z,74.57
2018-11-02T21:30:32.775Z,73.96
2018-11-02T21:33:01.747Z,74.46
2018-11-02T21:35:30.731Z,73.68
2018-11-02T21:37:59.776Z,73.51
2018-11-02T21:40:28.778Z,74.25
2018-11-02T21:42:57.752Z,74.24
2018-11-02T21:45:26.723Z,74.05
2018-11-02T21:47:55.979Z,73.71
2018-11-02T21:50:24.952Z,74.28
2018-11-02T21:52:53.835Z,73.95
2018-11-02T21:55:22.813Z,73.81
2018-11-02T21:57:51.842Z,74.41
2018-11-02T22:00:21.976Z,74.65
2018-11-02T22:02:50.890Z,74.42
2018-11-02T22:05:19.875Z,74.29
2018-11-02T22:07:49.778Z,73.88
2018-11-02T22:10:18.963Z,74.06
2018-11-02T22:12:47.959Z,73.65
2018-11-02T22:15:16.954Z,73.10
2018-11-02T22:17:45.951Z,73.68
2018-11-02T22:20:15.663Z,73.76
2018-11-02T22:22:44.664Z,73.46
2018-11-02T22:25:14.522Z,74.33
2018-11-02T22:27:43.593Z,73.61
2018-11-02T22:30:16.192Z,73.54
2018-11-02T22:32:45.145Z,73.41
2018-11-02T22:35:14.899Z,74.00
2018-11-02T22:37:44.130Z,73.67
2018-11-02T22:40:13.887Z,73.93
2018-11-02T22:42:43.513Z,73.63
2018-11-02T22:45:13.683Z,73.17
2018-11-02T22:47:46.742Z,73.67
2018-11-02T22:50:15.797Z,74.15
2018-11-02T22:52:44.765Z,74.42
2018-11-02T22:55:13.642Z,74.00
2018-11-02T22:57:42.626Z,74.43
2018-11-02T23:00:16.926Z,74.48
2018-11-02T23:02:46.691Z,74.23
2018-11-02T23:05:15.698Z,74.56
2018-11-02T23:07:45.182Z,74.97
2018-11-02T23:10:14.296Z,74.49
2018-11-02T23:12:43.293Z,73.94
2018-11-02T23:15:12.883Z,74.89
2018-11-02T23:17:41.857Z,74.82
2018-11-02T23:20:13.266Z,74.75
2018-11-02T23:22:42.214Z,74.48
2018-11-02T23:25:12.023Z,74.65
2018-11-02T23:27:42.191Z,73.98
2018-11-02T23:30:11.654Z,74.77
2018-11-02T23:32:40.632Z,75.14
2018-11-02T23:35:09.899Z,75.24
2018-11-02T23:37:39.042Z,75.28
2018-11-02T23:40:09.021Z,74.89
2018-11-02T23:42:37.974Z,74.76
2018-11-02T23:45:07.423Z,74.38
2018-11-02T23:47:36.471Z,74.49
2018-11-02T23:50:07.001Z,74.91
2018-11-02T23:52:35.903Z,75.21
2018-11-02T23:55:05.007Z,75.14
2018-11-02T23:57:33.916Z,75.11
